Time;durP1;ratioP1;P1;durP2;ratioP2;P2;SDS_P1;SDS_P2;PMS_P1;PMS_P2;Temp;Humidity;BMP_temperature;BMP_pressure;BME280_temperature;BME280_humidity;BME280_pressure;Samples;Min_cycle;Max_cycle;Signal;HPM_P1;HPM_P2
2022/03/10 00:00:46;;;;;;;11.00;7.00;;;4.70;53.20;4.50;97126.00;;;;5073645;28;20249;-83
2022/03/10 00:03:17;;;;;;;9.20;7.03;;;4.60;53.20;4.50;97125.00;;;;5074126;28;20890;-83
2022/03/10 00:05:44;;;;;;;9.07;6.87;;;4.60;53.30;4.50;97130.00;;;;5074064;28;20253;-82
2022/03/10 00:08:11;;;;;;;10.37;7.00;;;4.60;53.20;4.50;97125.00;;;;5073330;28;20204;-82
2022/03/10 00:10:38;;;;;;;9.73;7.43;;;6.00;53.90;4.40;97124.00;;;;5074146;28;20279;-83
2022/03/10 00:13:06;;;;;;;10.20;7.20;;;4.60;53.30;4.40;97123.00;;;;5073696;28;20665;-83
2022/03/10 00:15:33;;;;;;;10.60;8.13;;;4.60;53.30;4.40;97125.00;;;;5073928;28;20226;-83
2022/03/10 00:18:02;;;;;;;11.00;7.60;;;4.50;53.30;4.40;97121.00;;;;5075601;28;20431;-83
2022/03/10 00:20:31;;;;;;;11.03;7.53;;;4.50;53.30;4.40;97131.00;;;;5076199;28;20196;-83
2022/03/10 00:22:58;;;;;;;14.97;7.33;;;4.50;53.40;4.30;97133.00;;;;5075855;28;20204;-83
2022/03/10 00:25:25;;;;;;;10.77;7.43;;;4.50;53.40;4.30;97129.00;;;;5074739;28;20220;-83
2022/03/10 00:27:53;;;;;;;11.57;7.10;;;4.50;53.40;4.30;97133.00;;;;5075440;28;20196;-83
2022/03/10 00:30:20;;;;;;;10.57;7.70;;;4.50;53.50;4.30;97137.00;;;;5074786;28;20196;-83
2022/03/10 00:32:50;;;;;;;12.10;7.43;;;4.40;53.50;4.30;97135.00;;;;5075542;28;20211;-83
2022/03/10 00:35:19;;;;;;;9.93;7.43;;;4.40;53.80;4.30;97142.00;;;;5074615;28;20449;-83
2022/03/10 00:37:50;;;;;;;7.93;6.43;;;4.40;54.00;4.30;97138.00;;;;5073540;28;20454;-83
2022/03/10 00:40:19;;;;;;;11.63;6.87;;;4.40;54.30;4.30;97147.00;;;;5074712;28;20184;-83
2022/03/10 00:42:46;;;;;;;9.43;6.70;;;4.40;54.40;4.20;97145.00;;;;5074119;28;20864;-83
2022/03/10 00:45:16;;;;;;;10.40;6.50;;;4.40;54.40;4.20;97135.00;;;;5076315;28;20820;-83
2022/03/10 00:47:44;;;;;;;10.80;7.27;;;4.40;54.40;4.20;97137.00;;;;5079969;28;20444;-83
2022/03/10 00:50:11;;;;;;;10.73;6.33;;;4.40;54.30;4.20;97136.00;;;;5077684;28;20452;-83
2022/03/10 00:52:44;;;;;;;11.13;6.60;;;4.40;54.30;4.20;97130.00;;;;5077219;28;20426;-83
2022/03/10 00:55:16;;;;;;;8.10;6.17;;;4.40;54.30;4.20;97131.00;;;;5074409;28;20466;-83
2022/03/10 00:57:43;;;;;;;9.27;6.80;;;4.30;54.20;4.20;97133.00;;;;5070331;28;20197;-83
2022/03/10 01:00:13;;;;;;;9.37;6.57;;;4.30;54.20;4.10;97133.00;;;;5054718;28;20197;-83
2022/03/10 01:02:41;;;;;;;8.63;6.17;;;4.30;54.10;4.10;97129.00;;;;5060236;28;20514;-83
2022/03/10 01:05:10;;;;;;;10.37;6.87;;;4.30;54.10;4.10;97135.00;;;;5074332;28;20250;-83
2022/03/10 01:07:38;;;;;;;9.43;7.07;;;4.30;54.20;4.10;97129.00;;;;5074541;28;20199;-83
2022/03/10 01:10:08;;;;;;;10.10;6.93;;;4.30;54.30;4.10;97129.00;;;;5074270;28;20462;-83
2022/03/10 01:12:40;;;;;;;15.07;6.63;;;4.30;54.60;4.10;97141.00;;;;5073396;28;20962;-83
2022/03/10 01:15:09;;;;;;;10.10;6.57;;;4.20;54.50;4.00;97132.00;;;;5073837;28;20463;-83
2022/03/10 01:17:36;;;;;;;9.07;6.43;;;4.20;54.60;4.00;97140.00;;;;5074365;28;20524;-83
2022/03/10 01:20:05;;;;;;;9.97;7.10;;;4.20;54.60;4.00;97146.00;;;;5074623;28;20422;-83
2022/03/10 01:22:35;;;;;;;8.90;6.43;;;4.20;54.80;4.00;97144.00;;;;5073420;28;20452;-83
2022/03/10 01:25:02;;;;;;;8.80;6.70;;;4.20;55.10;3.90;97147.00;;;;5073450;28;20493;-83
2022/03/10 01:27:29;;;;;;;8.07;6.93;;;4.10;55.10;3.90;97138.00;;;;5073633;28;20198;-83
2022/03/10 01:29:57;;;;;;;10.30;7.10;;;4.10;55.10;3.90;97134.00;;;;5075156;28;20866;-83
2022/03/10 01:32:25;;;;;;;8.03;6.23;;;4.10;55.00;3.90;97141.00;;;;5075991;28;20434;-82
2022/03/10 01:34:54;;;;;;;9.83;6.30;;;4.10;55.00;3.90;97136.00;;;;5075525;28;20753;-83
2022/03/10 01:37:23;;;;;;;8.33;6.27;;;4.10;55.00;3.90;97133.00;;;;5077706;28;20200;-83
2022/03/10 01:39:50;;;;;;;8.97;6.90;;;4.10;54.90;3.90;97131.00;;;;5074810;28;20453;-83
2022/03/10 01:42:18;;;;;;;8.57;6.60;;;4.10;55.00;3.90;97140.00;;;;5078189;28;20251;-83
2022/03/10 01:44:45;;;;;;;8.10;6.37;;;4.00;54.90;3.80;97134.00;;;;5077840;28;20489;-83
2022/03/10 01:47:13;;;;;;;9.37;6.47;;;4.00;55.00;3.80;97135.00;;;;5077195;28;20810;-83
2022/03/10 01:49:41;;;;;;;8.20;6.53;;;4.00;55.00;3.80;97134.00;;;;5056005;28;20851;-84
2022/03/10 01:52:09;;;;;;;9.50;6.50;;;4.00;55.60;3.70;97133.00;;;;5055209;28;20447;-84
2022/03/10 01:54:36;;;;;;;9.07;6.83;;;3.90;55.10;3.70;97123.00;;;;5055042;28;20447;-84
2022/03/10 01:57:05;;;;;;;8.50;6.10;;;3.90;55.10;3.70;97130.00;;;;5060169;28;20882;-84
2022/03/10 01:59:33;;;;;;;6.87;6.17;;;3.90;55.10;3.70;97121.00;;;;5074960;28;20423;-84
2022/03/10 02:02:01;;;;;;;9.80;7.00;;;3.90;55.10;3.70;97126.00;;;;5074983;28;20458;-84
2022/03/10 02:04:29;;;;;;;12.33;6.70;;;3.80;55.00;3.60;97129.00;;;;5074806;28;20481;-84
2022/03/10 02:06:57;;;;;;;8.57;5.97;;;3.80;55.10;3.60;97131.00;;;;5074613;28;20449;-84
2022/03/10 02:12:10;;;;;;;7.93;6.50;;;3.80;55.10;3.50;97134.00;;;;5070487;28;20445;-84
2022/03/10 02:17:23;;;;;;;9.50;5.47;;;3.70;55.00;3.50;97136.00;;;;5094730;28;20424;-83
2022/03/10 02:19:55;;;;;;;7.50;6.20;;;3.70;55.00;3.50;97134.00;;;;5087828;28;20517;-84
2022/03/10 02:22:25;;;;;;;7.33;6.13;;;3.70;55.10;3.50;97133.00;;;;5074637;28;20414;-84
2022/03/10 02:24:56;;;;;;;10.17;6.60;;;3.70;55.00;3.40;97133.00;;;;5073241;28;20971;-84
2022/03/10 02:27:25;;;;;;;7.80;6.50;;;3.60;55.10;3.40;97135.00;;;;5074328;28;20429;-84
2022/03/10 02:29:55;;;;;;;7.20;5.83;;;3.60;55.30;3.40;97131.00;;;;5074327;28;20469;-84
2022/03/10 02:32:23;;;;;;;9.70;6.80;;;3.60;55.40;3.40;97127.00;;;;5074170;28;20430;-84
2022/03/10 02:34:52;;;;;;;7.40;6.27;;;3.60;55.60;3.30;97137.00;;;;5054011;28;20458;-84
2022/03/10 02:37:19;;;;;;;7.63;6.30;;;3.60;55.70;3.30;97140.00;;;;5071413;28;20973;-84
2022/03/10 02:39:48;;;;;;;9.53;6.83;;;3.70;55.90;3.20;97142.00;;;;5074087;28;20970;-84
2022/03/10 02:42:16;;;;;;;7.83;6.53;;;3.50;55.80;3.20;97151.00;;;;5074219;28;20772;-84
2022/03/10 02:44:44;;;;;;;8.47;6.57;;;3.50;55.80;3.20;97144.00;;;;5054104;28;20842;-84
2022/03/10 02:47:12;;;;;;;8.43;6.47;;;3.50;55.90;3.20;97146.00;;;;5070033;28;21033;-84
2022/03/10 02:49:42;;;;;;;7.70;6.53;;;3.50;55.70;3.20;97130.00;;;;5073862;28;20430;-84
2022/03/10 02:52:10;;;;;;;12.53;7.10;;;3.50;55.60;3.20;97149.00;;;;5073877;28;20445;-84
2022/03/10 02:54:37;;;;;;;8.17;5.97;;;3.50;55.70;3.20;97138.00;;;;5074136;28;20438;-84
2022/03/10 02:57:06;;;;;;;7.97;6.23;;;3.50;55.90;3.20;97146.00;;;;5071141;28;20461;-84
2022/03/10 02:59:33;;;;;;;8.00;6.27;;;3.50;56.10;3.10;97149.00;;;;5063297;28;20427;-84
2022/03/10 03:02:00;;;;;;;7.67;6.33;;;3.40;56.00;3.10;97149.00;;;;5072398;28;20441;-84
2022/03/10 03:04:27;;;;;;;9.63;6.50;;;3.40;56.10;3.10;97147.00;;;;5072653;28;20485;-84
2022/03/10 03:06:55;;;;;;;7.57;6.10;;;3.40;56.30;3.10;97150.00;;;;5073852;28;20447;-84
2022/03/10 03:09:22;;;;;;;6.20;5.20;;;3.40;56.40;3.10;97152.00;;;;5073120;28;20807;-84
2022/03/10 03:11:50;;;;;;;7.43;5.83;;;3.40;56.40;3.10;97150.00;;;;5073557;28;20447;-84
2022/03/10 03:14:22;;;;;;;6.67;6.00;;;3.50;56.40;3.10;97153.00;;;;5073304;28;20965;-84
2022/03/10 03:16:51;;;;;;;6.97;6.27;;;3.40;56.50;3.10;97147.00;;;;5073647;28;20513;-84
2022/03/10 03:19:18;;;;;;;6.57;5.50;;;3.40;56.50;3.10;97150.00;;;;5073366;28;20450;-84
2022/03/10 03:21:45;;;;;;;6.70;5.63;;;3.40;56.30;3.10;97160.00;;;;5073349;28;20434;-84
2022/03/10 03:24:13;;;;;;;7.87;5.60;;;3.40;56.30;3.10;97160.00;;;;5073146;28;20430;-85
2022/03/10 03:26:40;;;;;;;5.83;5.17;;;3.30;56.30;3.10;97154.00;;;;5073012;28;20466;-84
2022/03/10 03:29:07;;;;;;;7.73;5.90;;;3.30;56.20;3.10;97154.00;;;;5072632;28;20453;-84
2022/03/10 03:31:35;;;;;;;6.97;5.50;;;3.30;56.30;3.00;97169.00;;;;5073308;28;20807;-84
2022/03/10 03:34:09;;;;;;;8.40;5.97;;;3.30;56.20;3.00;97163.00;;;;5073021;28;20442;-84
2022/03/10 03:36:38;;;;;;;7.67;6.57;;;3.30;56.30;3.00;97170.00;;;;5072556;28;20462;-85
2022/03/10 03:39:07;;;;;;;8.13;5.93;;;3.30;56.30;3.00;97167.00;;;;5072646;28;20815;-85
2022/03/10 03:41:34;;;;;;;7.67;6.73;;;3.30;56.40;3.00;97172.00;;;;5073185;28;20962;-85
2022/03/10 03:44:01;;;;;;;8.40;6.67;;;3.30;56.50;3.00;97182.00;;;;5073225;28;21152;-84
2022/03/10 03:46:28;;;;;;;9.00;6.53;;;3.20;56.40;2.90;97181.00;;;;5072371;28;20991;-85
2022/03/10 03:48:57;;;;;;;7.40;6.20;;;3.20;56.40;2.90;97179.00;;;;5072144;28;20457;-84
2022/03/10 03:51:25;;;;;;;8.10;6.17;;;3.20;56.50;2.90;97180.00;;;;5072598;28;20943;-84
2022/03/10 03:53:52;;;;;;;7.70;6.43;;;3.20;56.50;2.90;97185.00;;;;5060159;28;20489;-85
2022/03/10 03:56:20;;;;;;;9.30;6.13;;;3.20;56.50;2.90;97182.00;;;;5052224;28;20463;-84
2022/03/10 03:58:48;;;;;;;7.17;6.00;;;3.20;56.50;2.90;97185.00;;;;5071506;28;20496;-85
2022/03/10 04:01:15;;;;;;;9.17;6.10;;;3.20;56.50;2.90;97196.00;;;;5070631;28;20943;-85
2022/03/10 04:03:42;;;;;;;7.30;6.03;;;3.20;56.50;2.90;97192.00;;;;5052826;28;20431;-85
2022/03/10 04:06:10;;;;;;;7.63;5.93;;;3.20;56.40;2.90;97198.00;;;;5066453;28;20486;-85
2022/03/10 04:08:38;;;;;;;6.70;5.90;;;3.20;56.30;2.90;97197.00;;;;5072643;28;20449;-84
2022/03/10 04:11:05;;;;;;;7.00;5.80;;;3.20;56.30;2.80;97198.00;;;;5072093;28;20438;-85
2022/03/10 04:13:32;;;;;;;7.63;6.47;;;3.10;56.20;2.80;97207.00;;;;5072194;28;20949;-85
2022/03/10 04:15:59;;;;;;;9.37;6.47;;;3.10;56.10;2.80;97202.00;;;;5073174;28;20461;-85
2022/03/10 04:18:26;;;;;;;9.70;6.80;;;3.10;56.10;2.80;97205.00;;;;5073185;28;20462;-86
2022/03/10 04:20:54;;;;;;;7.13;6.37;;;3.00;56.00;2.70;97215.00;;;;5076292;28;20437;-85
2022/03/10 04:23:22;;;;;;;9.37;6.30;;;3.00;56.00;2.70;97200.00;;;;5076088;28;20524;-85
2022/03/10 04:25:49;;;;;;;8.17;5.80;;;3.00;56.00;2.70;97203.00;;;;5070574;28;20478;-85
2022/03/10 04:28:16;;;;;;;7.07;5.93;;;2.90;56.00;2.70;97206.00;;;;5072684;28;20454;-85
2022/03/10 04:30:44;;;;;;;9.27;6.20;;;2.90;56.00;2.60;97218.00;;;;5066892;28;20809;-85
2022/03/10 04:33:11;;;;;;;7.00;5.83;;;2.90;56.00;2.60;97205.00;;;;5072316;28;20508;-84
2022/03/10 04:35:39;;;;;;;9.03;6.43;;;2.90;55.90;2.60;97209.00;;;;5071014;28;20468;-85
2022/03/10 04:38:07;;;;;;;8.13;6.27;;;2.90;55.90;2.60;97209.00;;;;5071581;28;20442;-85
2022/03/10 04:40:35;;;;;;;7.83;6.70;;;2.90;55.90;2.50;97206.00;;;;5072013;28;20454;-85
2022/03/10 04:43:02;;;;;;;8.90;6.70;;;2.80;55.90;2.50;97202.00;;;;5068264;28;20445;-85
2022/03/10 04:45:29;;;;;;;7.43;6.33;;;2.80;55.90;2.50;97199.00;;;;5070157;28;20970;-85
2022/03/10 04:47:56;;;;;;;7.97;6.40;;;2.80;55.90;2.40;97202.00;;;;5070193;28;20526;-85
2022/03/10 04:50:24;;;;;;;9.33;6.63;;;2.70;55.90;2.40;97204.00;;;;5069495;28;20434;-85
2022/03/10 04:52:51;;;;;;;7.97;6.67;;;2.70;56.00;2.40;97209.00;;;;5052039;28;20968;-85
2022/03/10 04:55:18;;;;;;;8.43;7.03;;;2.70;55.90;2.40;97202.00;;;;5064676;28;20524;-85
2022/03/10 04:57:46;;;;;;;11.07;6.90;;;2.70;55.90;2.40;97212.00;;;;5071407;28;20446;-85
2022/03/10 05:00:18;;;;;;;8.70;6.53;;;2.70;56.00;2.40;97205.00;;;;5070936;28;20928;-85
2022/03/10 05:02:47;;;;;;;9.37;6.47;;;2.60;56.00;2.30;97210.00;;;;5068874;28;20474;-85
2022/03/10 05:05:14;;;;;;;8.37;6.57;;;2.60;56.00;2.30;97204.00;;;;5052335;28;20529;-85
2022/03/10 05:07:42;;;;;;;7.67;6.77;;;2.60;56.00;2.30;97204.00;;;;5052479;28;20466;-85
2022/03/10 05:10:11;;;;;;;9.87;7.30;;;2.60;56.10;2.30;97209.00;;;;5068869;28;20525;-85
2022/03/10 05:12:47;;;;;;;8.07;7.23;;;2.60;56.10;2.30;97198.00;;;;5071889;28;20533;-85
2022/03/10 05:15:21;;;;;;;7.27;6.53;;;2.60;56.10;2.20;97210.00;;;;5071605;28;20826;-85
2022/03/10 05:17:48;;;;;;;9.03;6.43;;;2.60;56.10;2.20;97194.00;;;;5076231;28;20418;-85
2022/03/10 05:20:15;;;;;;;10.33;7.30;;;2.50;56.00;2.20;97204.00;;;;5075811;28;20524;-86
2022/03/10 05:22:45;;;;;;;9.03;6.97;;;2.50;56.10;2.20;97195.00;;;;5075801;28;20434;-86
2022/03/10 05:25:14;;;;;;;9.93;6.93;;;2.50;56.10;2.20;97203.00;;;;5075511;28;20486;-85
2022/03/10 05:27:41;;;;;;;8.63;6.53;;;2.50;56.10;2.10;97202.00;;;;5075809;28;20430;-85
2022/03/10 05:30:12;;;;;;;10.03;7.33;;;2.50;56.30;2.10;97211.00;;;;5075463;28;20445;-85
2022/03/10 05:32:40;;;;;;;10.30;7.20;;;2.40;56.30;2.10;97205.00;;;;5074702;28;20985;-84
2022/03/10 05:35:11;;;;;;;9.87;7.27;;;2.40;56.20;2.20;97208.00;;;;5075431;28;20468;-84
2022/03/10 05:37:40;;;;;;;8.60;6.67;;;2.40;56.20;2.20;97206.00;;;;5080495;28;20440;-84
2022/03/10 05:40:10;;;;;;;11.70;7.07;;;2.40;56.30;2.20;97213.00;;;;5077007;28;20954;-84
2022/03/10 05:42:39;;;;;;;8.87;6.27;;;2.40;56.40;2.20;97207.00;;;;5076109;28;20434;-84
2022/03/10 05:45:07;;;;;;;12.87;6.30;;;2.40;56.90;2.20;97204.00;;;;5075760;28;20473;-85
2022/03/10 05:47:36;;;;;;;8.93;6.07;;;2.30;56.40;2.20;97211.00;;;;5075618;28;20446;-84
2022/03/10 05:50:04;;;;;;;8.10;6.70;;;2.40;56.50;2.30;97212.00;;;;5075645;28;20441;-84
2022/03/10 05:52:31;;;;;;;11.73;7.33;;;2.40;56.60;2.30;97210.00;;;;5069714;28;20839;-84
2022/03/10 05:54:58;;;;;;;10.00;6.70;;;2.30;56.60;2.30;97212.00;;;;5074604;28;20951;-85
2022/03/10 05:57:25;;;;;;;9.07;6.87;;;2.40;56.60;2.30;97219.00;;;;5075581;28;20456;-84
2022/03/10 05:59:53;;;;;;;9.43;6.77;;;2.40;56.50;2.30;97221.00;;;;5075683;28;20449;-85
2022/03/10 06:02:20;;;;;;;9.83;7.33;;;2.40;56.60;2.30;97221.00;;;;5076209;28;20450;-85
2022/03/10 06:04:48;;;;;;;11.43;7.23;;;2.40;56.70;2.30;97223.00;;;;5074032;28;20470;-84
2022/03/10 06:07:16;;;;;;;9.00;7.27;;;2.40;57.00;2.40;97226.00;;;;5075264;28;20802;-85
2022/03/10 06:09:44;;;;;;;10.07;7.30;;;2.40;57.10;2.40;97236.00;;;;5074990;28;20447;-84
2022/03/10 06:12:11;;;;;;;10.00;7.03;;;2.40;57.20;2.40;97231.00;;;;5074916;28;20430;-84
2022/03/10 06:14:38;;;;;;;11.10;7.43;;;2.50;57.20;2.40;97233.00;;;;5074281;28;20517;-84
2022/03/10 06:17:05;;;;;;;8.90;7.00;;;2.50;57.20;2.50;97229.00;;;;5071026;28;20454;-85
2022/03/10 06:19:32;;;;;;;13.73;7.60;;;2.50;57.20;2.50;97242.00;;;;5070966;28;20441;-84
2022/03/10 06:22:00;;;;;;;11.63;8.30;;;2.60;57.20;2.50;97238.00;;;;5075918;28;20444;-84
2022/03/10 06:24:27;;;;;;;9.57;7.23;;;2.60;57.20;2.50;97235.00;;;;5059909;28;20522;-84
2022/03/10 06:26:54;;;;;;;10.27;7.03;;;2.60;57.10;2.50;97237.00;;;;5055280;28;20486;-84
2022/03/10 06:29:21;;;;;;;11.27;7.27;;;2.60;57.20;2.60;97241.00;;;;5069417;28;20962;-83
2022/03/10 06:31:51;;;;;;;10.30;6.77;;;2.60;57.20;2.60;97233.00;;;;5074689;28;20443;-84
2022/03/10 06:34:18;;;;;;;10.93;7.03;;;2.60;57.40;2.60;97247.00;;;;5076169;28;20495;-84
2022/03/10 06:36:45;;;;;;;7.73;5.90;;;2.70;57.40;2.60;97244.00;;;;5075065;28;20804;-85
2022/03/10 06:39:13;;;;;;;10.23;6.57;;;2.70;57.50;2.70;97244.00;;;;5076156;28;20927;-84
2022/03/10 06:41:40;;;;;;;9.07;6.87;;;2.70;57.50;2.70;97240.00;;;;5073907;28;20462;-84
2022/03/10 06:44:08;;;;;;;9.40;6.63;;;2.70;57.60;2.70;97249.00;;;;5073258;28;20438;-84
2022/03/10 06:46:35;;;;;;;8.40;6.73;;;2.70;57.70;2.70;97245.00;;;;5062931;28;20494;-85
2022/03/10 06:49:02;;;;;;;8.83;7.07;;;2.80;57.80;2.80;97249.00;;;;5065598;28;20448;-84
2022/03/10 06:51:29;;;;;;;9.30;7.47;;;2.80;57.90;2.80;97243.00;;;;5066782;28;20545;-86
2022/03/10 06:53:56;;;;;;;11.17;7.80;;;2.80;58.00;2.80;97245.00;;;;5064600;28;20435;-85
2022/03/10 06:56:25;;;;;;;10.17;7.60;;;2.80;58.00;2.90;97235.00;;;;5062419;28;20455;-86
2022/03/10 06:58:52;;;;;;;9.80;6.67;;;2.90;58.20;2.90;97243.00;;;;5064631;28;20438;-84
2022/03/10 07:01:20;;;;;;;10.57;7.10;;;2.90;58.20;2.90;97248.00;;;;5066298;28;20814;-84
2022/03/10 07:03:47;;;;;;;9.17;6.97;;;2.90;58.20;3.00;97243.00;;;;5061577;28;20454;-83
2022/03/10 07:06:14;;;;;;;8.40;6.40;;;3.00;58.80;3.10;97249.00;;;;5068316;28;20486;-85
2022/03/10 07:08:41;;;;;;;11.40;8.37;;;3.00;58.30;3.10;97254.00;;;;5069877;28;20533;-83
2022/03/10 07:11:08;;;;;;;10.27;7.40;;;3.10;58.40;3.20;97248.00;;;;5074054;28;20450;-85
2022/03/10 07:13:36;;;;;;;10.90;7.13;;;3.10;58.40;3.20;97255.00;;;;5073506;28;20427;-83
2022/03/10 07:16:04;;;;;;;10.00;7.70;;;3.20;58.50;3.30;97263.00;;;;5073169;28;20461;-83
2022/03/10 07:18:31;;;;;;;9.03;7.67;;;3.20;58.50;3.40;97255.00;;;;5073713;28;20442;-84
2022/03/10 07:20:58;;;;;;;10.03;7.73;;;3.30;58.50;3.40;97256.00;;;;5068146;28;20485;-84
2022/03/10 07:23:25;;;;;;;10.93;7.20;;;3.30;58.50;3.50;97260.00;;;;5076355;28;20430;-83
2022/03/10 07:25:52;;;;;;;9.80;7.37;;;3.40;58.60;3.60;97259.00;;;;5074617;28;20859;-84
2022/03/10 07:28:19;;;;;;;8.37;7.47;;;3.50;58.50;3.60;97255.00;;;;5074068;28;20431;-84
2022/03/10 07:30:47;;;;;;;9.20;7.00;;;3.50;58.50;3.70;97261.00;;;;5071371;28;20453;-84
2022/03/10 07:33:14;;;;;;;7.40;6.57;;;3.60;58.60;3.80;97268.00;;;;5072792;28;20435;-83
2022/03/10 07:35:41;;;;;;;11.33;7.80;;;3.60;58.50;3.80;97261.00;;;;5072988;28;20459;-82
2022/03/10 07:38:10;;;;;;;9.07;7.03;;;3.70;58.50;3.90;97254.00;;;;5071104;28;20450;-83
2022/03/10 07:40:37;;;;;;;9.70;7.03;;;3.80;58.50;4.00;97249.00;;;;5062860;28;20496;-81
2022/03/10 07:43:05;;;;;;;7.60;6.80;;;3.90;58.50;4.10;97241.00;;;;5056709;28;20821;-84
2022/03/10 07:45:33;;;;;;;8.33;6.90;;;3.90;58.30;4.20;97257.00;;;;5070306;28;20458;-84
2022/03/10 07:48:05;;;;;;;9.27;7.57;;;4.00;58.40;4.30;97263.00;;;;5072270;28;20958;-83
2022/03/10 07:50:33;;;;;;;9.90;7.93;;;4.10;58.50;4.40;97255.00;;;;5068265;28;20932;-84
2022/03/10 07:53:00;;;;;;;11.67;7.17;;;4.20;58.30;4.60;97259.00;;;;5070849;28;20442;-84
2022/03/10 07:55:27;;;;;;;9.20;7.50;;;4.30;58.40;4.70;97254.00;;;;5072334;28;20451;-84
2022/03/10 07:57:54;;;;;;;8.73;6.37;;;4.50;58.40;4.90;97259.00;;;;5072416;28;20496;-83
2022/03/10 08:00:21;;;;;;;9.03;7.03;;;4.60;58.70;5.10;97268.00;;;;5072599;28;20210;-84
2022/03/10 08:02:48;;;;;;;9.63;7.10;;;4.70;58.80;5.30;97264.00;;;;5071160;28;20191;-83
2022/03/10 08:05:17;;;;;;;9.43;7.40;;;4.90;58.90;5.50;97261.00;;;;5071116;28;20223;-83
2022/03/10 08:07:44;;;;;;;9.80;6.97;;;5.10;59.00;5.80;97257.00;;;;5071483;28;20220;-83
2022/03/10 08:10:11;;;;;;;8.70;6.70;;;5.20;59.00;6.00;97259.00;;;;5064090;28;20188;-84
2022/03/10 08:12:38;;;;;;;8.30;7.10;;;5.50;59.00;6.20;97266.00;;;;5069805;28;20192;-82
2022/03/10 08:15:08;;;;;;;9.27;7.40;;;5.70;58.90;6.50;97262.00;;;;5068971;28;20208;-83
2022/03/10 08:17:36;;;;;;;8.53;6.77;;;5.90;58.90;6.70;97267.00;;;;5074085;28;20191;-83
2022/03/10 08:20:04;;;;;;;9.67;7.30;;;6.10;58.80;7.00;97270.00;;;;5070731;28;20212;-83
2022/03/10 08:22:32;;;;;;;10.13;6.27;;;6.30;58.60;7.30;97269.00;;;;5071587;28;20188;-83
2022/03/10 08:25:13;;;;;;;7.37;5.93;;;6.60;58.50;7.60;97264.00;;;;5070789;28;20234;-83
2022/03/10 08:27:40;;;;;;;6.37;5.30;;;6.80;58.10;7.90;97265.00;;;;5056913;28;20216;-83
2022/03/10 08:30:13;;;;;;;6.17;5.50;;;7.10;57.90;8.10;97264.00;;;;5069386;28;20222;-83
2022/03/10 08:32:40;;;;;;;6.83;5.20;;;7.40;57.90;8.50;97270.00;;;;5071748;28;20198;-83
2022/03/10 08:35:08;;;;;;;6.07;5.40;;;7.60;57.60;8.80;97270.00;;;;5066575;28;20219;-83
2022/03/10 08:37:37;;;;;;;6.37;5.00;;;7.90;57.40;9.10;97274.00;;;;5065697;28;20566;-83
2022/03/10 08:40:05;;;;;;;6.77;5.13;;;8.20;57.20;9.40;97274.00;;;;5068615;28;20205;-83
2022/03/10 08:42:32;;;;;;;5.67;5.07;;;8.50;57.00;9.70;97280.00;;;;5062149;28;20197;-83
2022/03/10 08:44:59;;;;;;;5.10;4.60;;;8.70;56.70;10.00;97266.00;;;;5072341;28;20242;-83
2022/03/10 08:47:26;;;;;;;5.80;5.20;;;9.00;56.40;10.20;97275.00;;;;5072183;28;20223;-84
2022/03/10 08:49:56;;;;;;;6.47;4.67;;;9.30;56.10;10.60;97291.00;;;;5071460;28;20572;-83
2022/03/10 08:52:23;;;;;;;5.33;4.60;;;9.60;56.00;10.90;97282.00;;;;5062113;28;20196;-83
2022/03/10 08:54:54;;;;;;;5.97;4.77;;;9.80;56.30;11.20;97286.00;;;;5063925;28;20208;-84
2022/03/10 08:57:21;;;;;;;5.10;4.60;;;10.10;55.40;11.60;97274.00;;;;5071483;28;20273;-83
2022/03/10 08:59:48;;;;;;;5.67;5.00;;;10.40;55.00;12.00;97273.00;;;;5072119;28;20202;-83
2022/03/10 09:02:16;;;;;;;5.40;4.67;;;10.80;55.00;12.40;97284.00;;;;5072222;28;20286;-83
2022/03/10 09:04:43;;;;;;;5.70;4.80;;;11.00;55.00;12.70;97282.00;;;;5079166;28;20199;-84
2022/03/10 09:07:10;;;;;;;4.60;4.20;;;11.40;54.80;13.10;97282.00;;;;5071078;28;20617;-83
2022/03/10 09:09:37;;;;;;;5.20;4.43;;;11.90;54.20;13.50;97281.00;;;;5071748;28;20668;-84
2022/03/10 09:12:07;;;;;;;5.03;4.30;;;12.30;54.30;13.90;97279.00;;;;5071175;28;20192;-84
2022/03/10 09:14:34;;;;;;;4.73;4.27;;;12.90;53.80;14.30;97288.00;;;;5071362;28;20204;-83
2022/03/10 09:17:01;;;;;;;4.83;4.30;;;13.50;53.50;14.70;97292.00;;;;5070767;28;20663;-84
2022/03/10 09:19:28;;;;;;;5.33;4.37;;;14.10;53.00;15.00;97284.00;;;;5071452;28;20198;-83
2022/03/10 09:21:55;;;;;;;5.93;3.93;;;14.70;52.50;15.40;97289.00;;;;5068381;28;20287;-84
2022/03/10 09:24:22;;;;;;;5.10;4.40;;;15.30;51.60;15.70;97292.00;;;;5070737;28;20207;-83
2022/03/10 09:26:49;;;;;;;4.60;4.20;;;16.00;50.90;16.00;97288.00;;;;5067651;28;20225;-84
2022/03/10 09:29:18;;;;;;;4.20;3.80;;;16.60;49.70;16.40;97291.00;;;;5071258;28;20204;-84
2022/03/10 09:31:45;;;;;;;4.30;3.80;;;17.10;48.80;16.70;97287.00;;;;5072070;28;20196;-84
2022/03/10 09:34:12;;;;;;;5.17;3.80;;;17.60;47.90;17.00;97295.00;;;;5071429;28;20229;-84
2022/03/10 09:36:39;;;;;;;4.97;4.40;;;18.10;47.30;17.20;97298.00;;;;5083306;28;20220;-84
2022/03/10 09:39:06;;;;;;;4.10;3.70;;;18.50;46.00;17.50;97296.00;;;;5071451;28;20192;-83
2022/03/10 09:41:34;;;;;;;4.13;3.50;;;18.80;45.20;17.70;97290.00;;;;5071732;28;20192;-84
2022/03/10 09:44:02;;;;;;;4.70;4.30;;;19.00;44.50;17.90;97299.00;;;;5071270;28;20646;-84
2022/03/10 09:46:31;;;;;;;5.60;4.40;;;19.20;43.90;18.10;97301.00;;;;5067105;28;20231;-84
2022/03/10 09:48:58;;;;;;;3.83;3.53;;;19.30;42.60;18.30;97294.00;;;;5070166;28;20193;-84
2022/03/10 09:51:26;;;;;;;4.73;3.97;;;19.40;42.70;18.40;97299.00;;;;5071242;28;20203;-84
2022/03/10 09:53:53;;;;;;;4.00;3.70;;;19.40;42.20;18.50;97296.00;;;;5070691;28;20207;-84
2022/03/10 09:56:21;;;;;;;4.90;4.00;;;19.30;41.50;18.60;97303.00;;;;5066163;28;20237;-84
2022/03/10 09:58:48;;;;;;;4.00;3.60;;;19.30;40.60;18.60;97311.00;;;;5070897;28;20204;-84
2022/03/10 10:01:15;;;;;;;4.23;3.23;;;19.20;40.30;18.60;97304.00;;;;5072222;28;20192;-84
2022/03/10 10:03:44;;;;;;;3.47;3.20;;;19.10;40.40;18.60;97305.00;;;;5074134;28;20286;-84
2022/03/10 10:06:11;;;;;;;5.97;3.33;;;18.90;40.50;18.70;97304.00;;;;5068775;28;20546;-84
2022/03/10 10:08:41;;;;;;;3.60;3.20;;;18.90;40.70;18.70;97304.00;;;;5073223;28;20673;-85
2022/03/10 10:11:13;;;;;;;4.90;4.40;;;18.90;39.60;18.60;97304.00;;;;5069319;28;20239;-84
2022/03/10 10:13:51;;;;;;;4.73;4.23;;;18.80;38.20;18.60;97300.00;;;;5075055;28;20193;-84
2022/03/10 10:16:18;;;;;;;4.27;3.83;;;18.80;40.30;18.60;97289.00;;;;5074009;28;20298;-83
2022/03/10 10:18:46;;;;;;;4.93;3.93;;;18.80;40.30;18.60;97301.00;;;;5074507;28;20199;-83
2022/03/10 10:21:18;;;;;;;4.40;4.00;;;19.00;40.10;18.60;97300.00;;;;5074582;28;20668;-83
2022/03/10 10:23:45;;;;;;;3.90;3.60;;;19.20;39.60;18.70;97295.00;;;;5074224;28;20286;-83
2022/03/10 10:26:14;;;;;;;3.43;3.13;;;19.40;39.60;18.80;97298.00;;;;5074712;28;20231;-83
2022/03/10 10:28:43;;;;;;;3.73;3.30;;;19.60;40.00;18.90;97289.00;;;;5074772;28;20215;-83
2022/03/10 10:31:12;;;;;;;4.10;3.70;;;19.80;39.80;18.90;97295.00;;;;5075014;28;20202;-83
2022/03/10 10:33:42;;;;;;;3.57;3.27;;;20.00;39.60;19.00;97289.00;;;;5074918;28;20191;-83
2022/03/10 10:36:16;;;;;;;3.73;3.43;;;20.30;39.50;19.20;97289.00;;;;5074032;28;20231;-83
2022/03/10 10:38:49;;;;;;;3.73;3.43;;;20.50;38.40;19.30;97280.00;;;;5074878;28;20203;-83
2022/03/10 10:41:23;;;;;;;4.03;3.60;;;20.60;38.20;19.40;97284.00;;;;5075647;28;20269;-82
2022/03/10 10:43:54;;;;;;;3.93;3.53;;;20.80;37.90;19.50;97285.00;;;;5073994;28;20728;-83
2022/03/10 10:46:31;;;;;;;4.50;4.10;;;21.00;37.20;19.60;97280.00;;;;5073895;28;20212;-83
2022/03/10 10:49:05;;;;;;;3.83;3.27;;;21.10;37.00;19.70;97286.00;;;;5073208;28;20204;-82
2022/03/10 10:51:37;;;;;;;3.70;3.40;;;21.20;37.40;19.80;97282.00;;;;5074008;28;20204;-83
2022/03/10 10:54:07;;;;;;;4.00;3.60;;;21.30;37.10;19.90;97289.00;;;;5074813;28;20579;-84
2022/03/10 10:56:37;;;;;;;3.47;3.17;;;21.40;36.00;20.00;97281.00;;;;5080416;28;20218;-82
2022/03/10 10:59:04;;;;;;;3.37;3.07;;;21.40;36.00;20.00;97282.00;;;;5072684;28;20959;-83
2022/03/10 11:01:35;;;;;;;4.10;3.30;;;21.30;35.60;20.00;97271.00;;;;5073892;28;20234;-83
2022/03/10 11:04:04;;;;;;;3.33;3.03;;;21.20;34.90;19.90;97271.00;;;;5074282;28;20195;-83
2022/03/10 11:06:34;;;;;;;3.20;3.00;;;21.00;35.10;19.90;97266.00;;;;5073773;28;20254;-83
2022/03/10 11:09:02;;;;;;;4.47;3.00;;;20.80;35.00;19.80;97276.00;;;;5067743;28;20258;-82
2022/03/10 11:11:30;;;;;;;4.20;3.20;;;20.60;33.80;19.70;97270.00;;;;5061887;28;20279;-83
2022/03/10 11:13:57;;;;;;;5.53;3.23;;;20.30;34.40;19.50;97262.00;;;;5068713;28;20203;-83